Аэропорт
Yangyang International Airport (RKNY)

 RKNY / YNY

Korea, Republic of
KR-42
Sokcho / Gangneung
 38.06130, 128.66901  / 241 ft

 RKNY 182300Z 28006KT CAVOK 20/11 Q1014 NOSIG
 TAF RKNY 181700Z 1818/1924 21005KT CAVOK TN16/1821Z TX25/1904Z TN16/1920Z BECMG 1900/1901 27010KT BECMG 1909/1910 21005KT BECMG 1914/1915 27005KT

2020 © VATRUS division (Privacy Policy)